Weather observations for the past three days for
Ranger
Imperial (Metric)
Date Time (cdt) Wind (mph) Vis. (mi.) Weather Sky Cond. Temperature (ºF) Relative Humidity Wind Chill (°F) Heat Index (°F) Pressure Precipitation (in)
Air Dwpt 6 hour altimeter (in) sea level (mb) 1 hr 3 hr 6 hr
Max. Min.
04 14:35 S 9 G 16 10.00 NULL NULL 94.8 66.7 40% 99 29.95 0.0
04 14:15 S 13 G 20 10.00 NULL NULL 93.9 66.6 41% 97 29.95 0.0
04 13:55 S 15 G 18 10.00 NULL NULL 93.2 67.5 43% 97 29.95 0.0
04 13:35 S 13 G 24 10.00 NULL NULL 92.3 68 45% 97 29.96 0.0
04 13:15 S 14 G 18 10.00 NULL NULL 91.6 69.4 48% 97 29.97 0.0
04 12:55 S 14 G 21 10.00 NULL NULL 91.2 70.7 91.2 76.1 51% 98 29.97 0.0
04 12:35 S 12 G 18 10.00 NULL NULL 90 71.2 54% 96 29.98 0.0
04 12:15 S 13 G 18 10.00 NULL NULL 89.4 71.8 56% 96 29.99 0.0
04 11:55 S 12 G 17 10.00 NULL NULL 86.5 71.4 61% 92 29.99 0.0
04 11:35 S 14 G 17 10.00 NULL NULL 86.2 71.4 62% 92 29.99 0.0
04 11:15 S 9 10.00 NULL NULL 85.6 71.4 63% 91 30 0.0
04 10:55 S 12 10.00 NULL NULL 85.8 71.2 62% 91 30 0.0
04 10:35 S 13 G 20 10.00 NULL NULL 83.8 70.9 65% 89 29.99 0.0
04 10:15 S 15 10.00 NULL NULL 82.4 70.7 68% 87 29.99 0.0
04 09:55 S 13 G 20 10.00 NULL NULL 81.7 71.2 71% 86 29.99 0.0
04 09:35 S 14 G 20 10.00 Light Rain NULL 80.2 71.4 75% 84 29.98 0.0
04 09:15 S 10 G 18 10.00 NULL NULL 79 72 79% 82 29.98 0.0
04 08:55 S 10 G 16 10.00 NULL NULL 77.4 71.6 83% 79 29.98 0.0
04 08:35 S 10 10.00 NULL NULL 77 71.6 83% 78 29.98 0.0
04 08:15 S 12 10.00 NULL NULL 76.6 71.2 83% 78 29.98 0.0
04 07:55 S 13 G 17 10.00 NULL NULL 76.5 71.1 83% 77 29.97 0.0
04 07:35 S 9 10.00 NULL NULL 76.5 70.9 83% 78 29.96 0.0
04 07:15 S 12 10.00 NULL NULL 76.3 70.7 83% 77 29.95 0.0
04 06:55 S 10 10.00 NULL NULL 76.1 70.7 78.8 75.2 83% 77 29.95 0.0
04 06:35 S 8 10.00 NULL NULL 76.1 70.7 83% 77 29.94 0.0
04 06:15 S 10 10.00 NULL NULL 76.1 70.7 83% 77 29.94 0.0
04 05:55 S 9 10.00 NULL NULL 75.6 70.7 85% 76 29.94 0.0
04 05:35 S 8 10.00 NULL NULL 75.4 70.7 85% 75 29.94 0.0
04 05:15 SE 9 10.00 NULL NULL 75.4 70.5 85% 76 29.94 0.0
04 04:55 S 9 10.00 NULL NULL 75.6 70.3 84% 76 29.93 0.0
04 04:35 S 10 10.00 NULL NULL 75.7 70.3 83% 76 29.93 0.0
04 04:15 S 8 10.00 NULL NULL 75.7 70.2 83% 76 29.92 0.0
04 03:55 S 9 10.00 NULL NULL 76.1 70.2 82% 77 29.93 0.0
04 03:35 S 8 10.00 NULL NULL 76.1 70 81% 77 29.93 0.0
04 03:15 S 9 10.00 NULL NULL 76.5 69.8 80% 78 29.93 0.0
04 02:55 S 8 10.00 NULL NULL 77 69.8 79% 79 29.93 0.0
04 02:35 S 8 10.00 NULL NULL 77.2 69.8 78% 79 29.93 0.0
04 02:15 S 10 G 16 10.00 NULL NULL 77.5 69.8 77% 79 29.93 0.0
04 01:55 S 10 G 16 10.00 NULL NULL 77.9 69.8 76% 80 29.94 0.0
04 01:35 S 10 10.00 NULL NULL 78.1 69.8 76% 80 29.94 0.0
04 01:15 S 10 G 16 10.00 NULL NULL 78.8 70 74% 81 29.94 0.0
04 00:55 S 10 10.00 NULL NULL 79 70 95 79 74% 82 29.93 0.0
04 00:35 SE 10 G 17 10.00 NULL NULL 79.7 70 72% 83 29.93 0.0
04 00:15 SE 10 G 17 10.00 NULL NULL 79.9 70 72% 83 29.93 0.0
03 23:55 S 9 10.00 NULL NULL 80.1 70.3 72% 83 29.93 0.0
03 23:35 S 12 10.00 NULL NULL 81 71.1 72% 85 29.92 0.0
03 23:15 SE 12 10.00 NULL NULL 81.7 72 72% 86 29.93 0.0
03 22:55 SE 12 10.00 NULL NULL 82 72.9 74% 87 29.92 0.0
03 22:35 SE 10 G 17 10.00 NULL NULL 82.6 72.5 72% 88 29.92 0.0
03 22:15 SE 15 G 21 10.00 NULL NULL 83.3 72.3 70% 89 29.91 0.0
03 21:55 SE 10 10.00 NULL NULL 83.8 71.8 67% 89 29.91 0.0
03 21:35 S 14 G 21 10.00 NULL NULL 84.7 71.8 65% 90 29.9 0.0
03 21:15 SE 12 G 20 10.00 NULL NULL 85.6 72 64% 92 29.89 0.0
03 20:55 SE 14 G 18 10.00 NULL NULL 87.1 72.5 62% 94 29.88 0.0
03 20:35 SE 12 G 17 10.00 NULL NULL 88.7 71.4 57% 95 29.87 0.0
03 20:15 S 8 10.00 NULL NULL 89.8 69.1 51% 94 29.86 0.0
03 19:55 S 10 10.00 NULL NULL 90.7 69.1 49% 95 29.85 0.0
03 19:35 S 13 G 17 10.00 NULL NULL 92.5 68.5 46% 97 29.85 0.0
03 19:15 S 13 G 16 10.00 NULL NULL 94.1 68.9 44% 99 29.85 0.0
03 18:55 S 8 10.00 NULL NULL 95 68.2 101.8 82.9 42% 100 29.85 0.0 0.03 0.2
03 18:35 S 10 10.00 NULL NULL 95.9 67.1 39% 100 29.84 0.0 0.03
03 18:15 SE 12 G 16 10.00 NULL NULL 95.9 68 40% 101 29.84 0.0 0.02
03 17:55 S 12 G 21 10.00 NULL NULL 96.1 68.4 40% 101 29.84 0.0 0.09
03 17:35 S 13 10.00 NULL NULL 96.3 67.1 39% 101 29.83 0.0 0.06
03 17:15 SE 12 G 16 10.00 NULL NULL 95.7 68.5 41% 101 29.84 0.0 0.02
03 16:55 S 12 10.00 NULL NULL 95.5 68.7 42% 101 29.84 0.0 0.03
03 16:35 SW 3 10.00 NULL NULL 95 69.8 44% 101 29.84 0.0 0.02
03 16:15 Calm 10.00 NULL NULL 88.5 79 73% 104 29.85 0.0 0.01
03 15:55 SW 3 10.00 NULL NULL 83.7 76.3 79% 93 29.85 0.0 0.05 0.05
03 15:35 Calm 2.50 Heavy Rain NULL 83.1 70.3 65% 87 29.87 0.0 0.04
03 15:15 SW 8 G 17 10.00 NULL NULL 86.2 68.9 56% 90 29.87 0.0 0.02
03 14:55 NW 12 10.00 Rain NULL 87.1 69.4 56% 92 29.88 0.0
03 14:35 W 3 10.00 NULL NULL 99.1 62.6 30% 101 29.88 0.0
03 14:15 Calm 10.00 NULL NULL 98.8 63.1 31% 101 29.88 0.0
03 13:55 E 3 10.00 NULL NULL 99.1 64 32% 102 29.89 0.0
03 13:35 E 5 10.00 NULL NULL 99.7 65.3 33% 103 29.9 0.0
03 13:15 NE 5 10.00 NULL NULL 98.2 65.5 34% 102 29.91 0.0
03 12:55 SW 7 10.00 NULL NULL 98.2 66.4 98.2 70.5 35% 102 29.93 0.0
03 12:35 S 5 10.00 NULL NULL 95.7 66.7 39% 100 29.94 0.0
03 12:15 SW 5 10.00 NULL NULL 95.4 66.7 39% 99 29.95 0.0
03 11:55 SW 6 10.00 NULL NULL 93.9 66.9 41% 98 29.95 0.0
03 11:35 SW 7 10.00 NULL NULL 93 68.2 44% 98 29.95 0.0
03 11:15 S 5 10.00 NULL NULL 91 68.4 47% 95 29.95 0.0
03 10:55 SW 7 10.00 NULL NULL 89.8 68.5 50% 94 29.95 0.0
03 10:35 S 6 10.00 NULL NULL 87.3 69.1 55% 92 29.95 0.0
03 10:15 SW 7 10.00 NULL NULL 86 69.1 57% 90 29.95 0.0
03 09:55 S 6 10.00 NULL NULL 84.4 69.1 60% 88 29.95 0.0
03 09:35 S 6 10.00 NULL NULL 82.8 69.8 65% 87 29.95 0.0
03 09:15 S 5 10.00 NULL NULL 80.8 69.4 69% 84 29.95 0.0
03 08:55 S 5 10.00 NULL NULL 79.2 69.4 72% 82 29.96 0.0
03 08:35 E 3 10.00 NULL NULL 77.5 69.4 76% 79 29.96 0.0
03 08:15 Calm 10.00 NULL NULL 75.6 68.9 80% 76 29.95 0.0
03 07:55 Calm 10.00 NULL NULL 72.3 68.2 87% 29.95 0.0
03 07:35 Calm 10.00 NULL NULL 70.9 68 91% 29.95 0.0
03 07:15 Calm 10.00 NULL NULL 71.2 68 90% 29.94 0.0
03 06:55 SE 3 10.00 NULL NULL 71.4 68.2 81.5 70.9 90% 29.94 0.0
03 06:35 Calm 10.00 NULL NULL 72.5 68.4 87% 29.93 0.0
03 06:15 S 3 10.00 NULL NULL 73.6 68.5 84% 29.92 0.0
03 05:55 S 3 10.00 NULL NULL 74.5 68.9 83% 29.92 0.0
03 05:35 S 3 10.00 NULL NULL 73.9 68.5 83% 29.92 0.0
03 05:15 S 3 10.00 NULL NULL 73.6 68.2 83% 29.93 0.0
03 04:55 S 3 10.00 NULL NULL 73.9 68.4 83% 29.92 0.0
03 04:35 S 5 10.00 NULL NULL 75.4 68.4 79% 76 29.93 0.0
03 04:15 S 3 10.00 NULL NULL 75.7 68.5 78% 77 29.93 0.0
03 03:55 S 3 10.00 NULL NULL 75.2 68.4 79% 76 29.94 0.0
03 03:35 S 5 10.00 NULL NULL 75.7 68.4 78% 77 29.94 0.0
03 03:15 S 6 10.00 NULL NULL 75.7 68.2 77% 77 29.95 0.0
03 02:55 S 6 10.00 NULL NULL 76.5 68.4 76% 78 29.95 0.0
03 02:35 S 7 10.00 NULL NULL 77.9 68.4 73% 80 29.95 0.0
03 02:15 S 7 10.00 NULL NULL 78.6 68.4 71% 81 29.96 0.0
03 01:55 S 8 10.00 NULL NULL 78.8 68.4 70% 81 29.96 0.0
03 01:35 S 7 10.00 NULL NULL 79.7 68.4 68% 82 29.96 0.0
03 01:15 S 7 10.00 NULL NULL 80.2 68.2 67% 83 29.96 0.0
03 00:55 S 9 10.00 NULL NULL 81.5 68 95 80.8 64% 84 29.96 0.0
03 00:35 S 8 10.00 NULL NULL 81.5 67.5 63% 84 29.96 0.0
03 00:15 SE 7 10.00 NULL NULL 81.5 67.1 62% 84 29.95 0.0
02 23:55 SE 6 10.00 NULL NULL 82 66.4 59% 84 29.95 0.0
02 23:35 SE 5 10.00 NULL NULL 82.9 66.6 58% 85 29.95 0.0
02 23:15 SE 7 10.00 NULL NULL 84.2 66.2 55% 87 29.96 0.0
02 22:55 SE 7 10.00 NULL NULL 85.1 66 53% 87 29.96 0.0
02 22:35 SE 8 10.00 NULL NULL 86 64.2 48% 87 29.96 0.0
02 22:15 SE 10 10.00 NULL NULL 86.5 63.1 46% 87 29.95 0.0
02 21:55 SE 8 10.00 NULL NULL 86.7 62.6 45% 87 29.95 0.0
02 21:35 SE 6 10.00 NULL NULL 87.6 62.4 43% 88 29.94 0.0
02 21:15 E 6 10.00 NULL NULL 88 62.1 42% 88 29.93 0.0
02 20:55 E 7 10.00 NULL NULL 88.7 61.7 40% 89 29.92 0.0
02 20:35 E 6 10.00 NULL NULL 89.6 61.7 39% 90 29.91 0.0
02 20:15 SE 6 10.00 NULL NULL 90.5 61.7 38% 91 29.91 0.0
02 19:55 E 6 10.00 NULL NULL 92.1 61.5 36% 92 29.9 0.0
02 19:35 SE 3 10.00 NULL NULL 93.2 61.7 35% 94 29.9 0.0
02 19:15 E 6 10.00 NULL NULL 94.3 61.5 34% 95 29.9 0.0
02 18:55 E 7 10.00 NULL NULL 95.2 61.7 100.2 94.3 33% 96 29.9 0.0
02 18:35 E 10 G 16 10.00 NULL NULL 97.7 61.7 30% 99 29.9 0.0
02 18:15 E 6 10.00 NULL NULL 100 60.8 27% 101 29.89 0.0
02 17:55 Calm 10.00 NULL NULL 98.8 60.8 29% 99 29.89 0.0
02 17:35 Calm 10.00 NULL NULL 99 61 29% 100 29.9 0.0
02 17:15 SE 3 10.00 NULL NULL 97.3 61.2 30% 98 29.9 0.0
02 16:55 SE 7 10.00 NULL NULL 100 62.1 29% 102 29.9 0.0
02 16:35 SE 6 10.00 NULL NULL 98.6 61.2 29% 99 29.91 0.0
02 16:15 Calm 10.00 NULL NULL 97.7 60.8 30% 98 29.91 0.0
02 15:55 SW 3 10.00 NULL NULL 97.2 62.4 32% 98 29.93 0.0
02 15:35 SE 7 10.00 NULL NULL 97 62.4 32% 98 29.93 0.0
02 15:15 NE 5 10.00 NULL NULL 98.4 61.2 29% 99 29.94 0.0
02 14:55 E 6 10.00 NULL NULL 98.8 62.1 30% 100 29.95 0.0
02 14:35 Calm 10.00 NULL NULL 95.9 61.9 32% 97 29.96 0.0
02 14:15 Calm 10.00 NULL NULL 95.7 61.9 33% 97 29.97 0.0
02 13:55 SE 5 10.00 NULL NULL 98.6 62.4 30% 100 29.98 0.0
02 13:35 SE 8 10.00 NULL NULL 95.2 61.9 33% 96 29.99 0.0
02 13:15 Calm 10.00 NULL NULL 94.3 63.3 36% 96 30 0.0
02 12:55 Calm 10.00 NULL NULL 95.5 63.3 98.2 73.4 35% 97 30.01 0.0
02 12:35 E 8 10.00 NULL NULL 95.4 64.8 37% 98 30.01 0.0
02 12:15 S 3 10.00 NULL NULL 94.3 65.1 38% 97 30.02 0.0
02 11:55 SE 7 10.00 NULL NULL 93.6 65.5 40% 96 30.03 0.0
02 11:35 SE 5 10.00 NULL NULL 92.5 65.8 42% 95 30.03 0.0
02 11:15 S 6 10.00 NULL NULL 91.4 67.3 45% 95 30.04 0.0
02 10:55 SW 6 10.00 NULL NULL 90.3 67.6 47% 94 30.05 0.0
02 10:35 S 3 10.00 NULL NULL 88.3 68 51% 92 30.05 0.0
02 10:15 SW 6 10.00 NULL NULL 87.4 67.8 52% 91 30.04 0.0
02 09:55 S 5 10.00 NULL NULL 86.4 68.4 55% 90 30.04 0.0
02 09:35 SE 5 10.00 NULL NULL 85.1 68.5 58% 89 30.04 0.0
02 09:15 S 5 10.00 NULL NULL 82.6 68.9 63% 86 30.03 0.0
02 08:55 SE 5 10.00 NULL NULL 81 68.9 67% 84 30.03 0.0
02 08:35 S 5 10.00 NULL NULL 79.3 68.5 70% 82 30.03 0.0
02 08:15 S 5 10.00 NULL NULL 77.2 68.2 74% 79 30.03 0.0
02 07:55 S 3 10.00 NULL NULL 75.9 68 77% 77 30.03 0.0
02 07:35 S 5 10.00 NULL NULL 74.8 67.6 78% 30.02 0.0
02 07:15 S 6 10.00 NULL NULL 73.9 67.3 80% 30.02 0.0
02 06:55 SW 5 10.00 NULL NULL 74.3 67.3 82.4 74.3 79% 30.02 0.0
02 06:35 S 6 10.00 NULL NULL 74.7 67.3 78% 30.01 0.0
02 06:15 S 5 10.00 NULL NULL 74.3 67.1 78% 30.01 0.0
02 05:55 S 5 10.00 NULL NULL 74.7 67.1 77% 30.01 0.0
02 05:35 S 6 10.00 NULL NULL 75.2 66.6 75% 76 30.02 0.0
02 05:15 S 6 10.00 NULL NULL 75.4 66.2 73% 77 30.01 0.0
02 04:55 S 6 10.00 NULL NULL 75.9 66.2 72% 77 30.01 0.0
02 04:35 S 5 10.00 NULL NULL 76.3 65.5 69% 78 30.02 0.0
02 04:15 S 6 10.00 NULL NULL 76.6 65.3 68% 78 30.01 0.0
02 03:55 S 5 10.00 NULL NULL 76.8 65.1 67% 79 30.01 0.0
02 03:35 S 5 10.00 NULL NULL 78.3 64.9 64% 80 30.02 0.0
02 03:15 S 5 10.00 NULL NULL 78.4 64.9 63% 80 30.02 0.0
02 02:55 S 6 10.00 NULL NULL 79 64.6 61% 81 30.02 0.0
02 02:35 SE 7 10.00 NULL NULL 78.6 64.4 62% 80 30.02 0.0
02 02:15 S 7 10.00 NULL NULL 78.4 64.4 62% 80 30.02 0.0
02 01:55 S 6 10.00 NULL NULL 78.8 64 61% 81 30.02 0.0
02 01:35 S 6 10.00 NULL NULL 80.6 64 57% 82 30.02 0.0
02 01:15 S 3 10.00 NULL NULL 81 64 57% 83 30.02 0.0
02 00:55 S 6 10.00 NULL NULL 82.2 63.9 94.5 81 54% 84 30.02 0.0
02 00:35 S 6 10.00 NULL NULL 81.7 63.7 54% 83 30.01 0.0
02 00:15 SE 6 10.00 NULL NULL 81.1 63.7 55% 83 30.01 0.0
01 23:55 S 3 10.00 NULL NULL 81.5 63.5 54% 83 30.01 0.0
01 23:35 SE 5 10.00 NULL NULL 82.2 63.5 53% 84 30.01 0.0
01 23:15 SE 6 10.00 NULL NULL 83.1 63.5 52% 84 30.01 0.0
01 22:55 S 6 10.00 NULL NULL 81.1 63.5 55% 83 30.01 0.0
01 22:35 SE 5 10.00 NULL NULL 82.4 63.1 52% 84 30 0.0
01 22:15 SE 5 10.00 NULL NULL 82.6 63 52% 84 30 0.0
01 21:55 SE 5 10.00 NULL NULL 83.1 62.6 50% 84 29.99 0.0
01 21:35 SE 5 10.00 NULL NULL 83.8 62.2 48% 85 29.98 0.0
01 21:15 SE 6 10.00 NULL NULL 84.6 62.1 47% 85 29.97 0.0
01 20:55 SE 5 10.00 NULL NULL 86.2 61.9 44% 87 29.97 0.0
01 20:35 SE 5 10.00 NULL NULL 87.3 61.7 42% 88 29.96 0.0
01 20:15 SE 7 10.00 NULL NULL 88.7 61.2 40% 89 29.96 0.0
01 19:55 SE 6 10.00 NULL NULL 90.1 61 38% 90 29.95 0.0
01 19:35 SE 6 10.00 NULL NULL 91.8 60.8 36% 92 29.95 0.0
01 19:15 SE 7 10.00 NULL NULL 93 60.8 34% 93 29.96 0.0
01 18:55 SE 10 10.00 NULL NULL 94.6 60.8 100.2 93 32% 95 29.95 0.0
01 18:35 E 12 10.00 NULL NULL 95.2 60.1 31% 95 29.95 0.0
01 18:15 E 8 10.00 NULL NULL 97.9 58.3 27% 97 29.95 0.0
01 17:55 E 9 10.00 NULL NULL 98.8 57 25% 98 29.95 0.0
01 17:35 SE 7 10.00 NULL NULL 99.1 59.5 27% 99 29.95 0.0
01 17:15 S 5 10.00 NULL NULL 99.1 58.8 26% 99 29.95 0.0
01 16:55 S 12 G 17 10.00 NULL NULL 100 59 26% 100 29.96 0.0
01 16:35 S 10 G 18 10.00 NULL NULL 99.5 59.4 26% 100 29.96 0.0
01 16:15 SE 3 10.00 NULL NULL 96.4 60.4 30% 97 29.97 0.0
01 15:55 S 8 10.00 NULL NULL 94.8 59.9 31% 95 29.98 0.0
01 15:35 SE 3 10.00 NULL NULL 94.1 61.7 34% 95 29.99 0.0
01 15:15 SE 12 10.00 NULL NULL 97.3 62.4 32% 99 29.99 0.0
Date Time (cdt) Wind (mph) Vis. (mi.) Weather Sky Cond. Air Dwpt Max. Min. Relative Humidity Wind Chill (°F) Heat Index (°F) altimeter (in) sea level (mb) 1 hr 3 hr 6 hr
6 hour
Temperature (ºF) Pressure Precipitation (in)